sensor_id;sensor_type;location;lat;lon;timestamp;P1;durP1;ratioP1;P2;durP2;ratioP2
295;SDS011;132;48.770;9.200;2024-01-07T00:00:05;38.40;;;19.27;;
295;SDS011;132;48.770;9.200;2024-01-07T00:02:53;35.13;;;17.92;;
295;SDS011;132;48.770;9.200;2024-01-07T00:05:39;33.80;;;18.38;;
295;SDS011;132;48.770;9.200;2024-01-07T00:08:26;34.15;;;18.00;;
295;SDS011;132;48.770;9.200;2024-01-07T00:11:13;39.10;;;19.15;;
295;SDS011;132;48.770;9.200;2024-01-07T00:14:00;37.55;;;18.70;;
295;SDS011;132;48.770;9.200;2024-01-07T00:16:46;32.92;;;17.33;;
295;SDS011;132;48.770;9.200;2024-01-07T00:19:33;34.13;;;18.40;;
295;SDS011;132;48.770;9.200;2024-01-07T00:22:21;34.20;;;17.17;;
295;SDS011;132;48.770;9.200;2024-01-07T00:25:08;35.08;;;18.08;;
295;SDS011;132;48.770;9.200;2024-01-07T00:27:54;33.00;;;18.10;;
295;SDS011;132;48.770;9.200;2024-01-07T00:30:41;35.42;;;18.08;;
295;SDS011;132;48.770;9.200;2024-01-07T00:33:28;32.63;;;18.13;;
295;SDS011;132;48.770;9.200;2024-01-07T00:36:16;32.88;;;16.77;;
295;SDS011;132;48.770;9.200;2024-01-07T00:39:02;31.63;;;16.85;;
295;SDS011;132;48.770;9.200;2024-01-07T00:41:49;28.75;;;16.13;;
295;SDS011;132;48.770;9.200;2024-01-07T00:44:36;28.23;;;16.00;;
295;SDS011;132;48.770;9.200;2024-01-07T00:47:23;29.42;;;15.95;;
295;SDS011;132;48.770;9.200;2024-01-07T00:50:10;28.70;;;16.33;;
295;SDS011;132;48.770;9.200;2024-01-07T00:52:57;28.40;;;15.55;;
295;SDS011;132;48.770;9.200;2024-01-07T00:55:43;25.65;;;14.70;;
295;SDS011;132;48.770;9.200;2024-01-07T00:58:30;27.55;;;15.13;;
295;SDS011;132;48.770;9.200;2024-01-07T01:01:17;27.90;;;15.63;;
295;SDS011;132;48.770;9.200;2024-01-07T01:04:04;29.17;;;15.60;;
295;SDS011;132;48.770;9.200;2024-01-07T01:06:51;29.50;;;14.90;;
295;SDS011;132;48.770;9.200;2024-01-07T01:09:37;31.67;;;15.90;;
295;SDS011;132;48.770;9.200;2024-01-07T01:12:24;30.65;;;16.58;;
295;SDS011;132;48.770;9.200;2024-01-07T01:15:11;29.42;;;16.50;;
295;SDS011;132;48.770;9.200;2024-01-07T01:17:58;29.67;;;16.27;;
295;SDS011;132;48.770;9.200;2024-01-07T01:20:45;31.65;;;16.08;;
295;SDS011;132;48.770;9.200;2024-01-07T01:23:32;29.73;;;17.02;;
295;SDS011;132;48.770;9.200;2024-01-07T01:26:18;32.33;;;17.17;;
295;SDS011;132;48.770;9.200;2024-01-07T01:29:05;30.25;;;16.95;;
295;SDS011;132;48.770;9.200;2024-01-07T01:31:52;32.63;;;16.42;;
295;SDS011;132;48.770;9.200;2024-01-07T01:34:39;36.45;;;18.00;;
295;SDS011;132;48.770;9.200;2024-01-07T01:37:27;32.17;;;16.80;;
295;SDS011;132;48.770;9.200;2024-01-07T01:40:16;32.72;;;17.48;;
295;SDS011;132;48.770;9.200;2024-01-07T01:43:03;34.42;;;16.48;;
295;SDS011;132;48.770;9.200;2024-01-07T01:45:50;37.60;;;18.38;;
295;SDS011;132;48.770;9.200;2024-01-07T01:48:37;32.55;;;16.92;;
295;SDS011;132;48.770;9.200;2024-01-07T01:51:24;35.80;;;16.95;;
295;SDS011;132;48.770;9.200;2024-01-07T01:54:12;36.53;;;17.83;;
295;SDS011;132;48.770;9.200;2024-01-07T01:56:59;38.90;;;18.90;;
295;SDS011;132;48.770;9.200;2024-01-07T01:59:45;35.60;;;18.13;;
295;SDS011;132;48.770;9.200;2024-01-07T02:02:33;36.33;;;18.50;;
295;SDS011;132;48.770;9.200;2024-01-07T02:05:22;32.47;;;16.55;;
295;SDS011;132;48.770;9.200;2024-01-07T02:08:09;36.33;;;18.90;;
295;SDS011;132;48.770;9.200;2024-01-07T02:10:56;35.67;;;18.13;;
295;SDS011;132;48.770;9.200;2024-01-07T02:13:43;38.45;;;18.15;;
295;SDS011;132;48.770;9.200;2024-01-07T02:16:29;33.67;;;18.40;;
295;SDS011;132;48.770;9.200;2024-01-07T02:19:16;37.20;;;18.13;;
295;SDS011;132;48.770;9.200;2024-01-07T02:22:05;41.10;;;19.48;;
295;SDS011;132;48.770;9.200;2024-01-07T02:24:51;44.45;;;21.63;;
295;SDS011;132;48.770;9.200;2024-01-07T02:27:38;43.45;;;20.08;;
295;SDS011;132;48.770;9.200;2024-01-07T02:30:25;46.97;;;22.08;;
295;SDS011;132;48.770;9.200;2024-01-07T02:33:13;47.70;;;21.45;;
295;SDS011;132;48.770;9.200;2024-01-07T02:35:59;40.58;;;19.05;;
295;SDS011;132;48.770;9.200;2024-01-07T02:38:46;40.97;;;19.70;;
295;SDS011;132;48.770;9.200;2024-01-07T02:41:32;44.88;;;20.38;;
295;SDS011;132;48.770;9.200;2024-01-07T02:44:19;41.40;;;20.70;;
295;SDS011;132;48.770;9.200;2024-01-07T02:47:06;38.95;;;18.33;;
295;SDS011;132;48.770;9.200;2024-01-07T02:49:52;40.65;;;20.27;;
295;SDS011;132;48.770;9.200;2024-01-07T02:52:39;41.15;;;20.17;;
295;SDS011;132;48.770;9.200;2024-01-07T02:55:25;43.72;;;20.98;;
295;SDS011;132;48.770;9.200;2024-01-07T02:58:12;39.28;;;19.92;;
295;SDS011;132;48.770;9.200;2024-01-07T03:00:59;38.97;;;19.27;;
295;SDS011;132;48.770;9.200;2024-01-07T03:03:46;45.72;;;20.67;;
295;SDS011;132;48.770;9.200;2024-01-07T03:06:33;40.92;;;18.58;;
295;SDS011;132;48.770;9.200;2024-01-07T03:09:19;43.15;;;21.40;;
295;SDS011;132;48.770;9.200;2024-01-07T03:12:06;33.30;;;19.30;;
295;SDS011;132;48.770;9.200;2024-01-07T03:14:53;43.80;;;21.60;;
295;SDS011;132;48.770;9.200;2024-01-07T03:17:40;35.63;;;19.70;;
295;SDS011;132;48.770;9.200;2024-01-07T03:20:26;43.72;;;20.75;;
295;SDS011;132;48.770;9.200;2024-01-07T03:23:13;44.53;;;21.13;;
295;SDS011;132;48.770;9.200;2024-01-07T03:26:00;38.30;;;19.60;;
295;SDS011;132;48.770;9.200;2024-01-07T03:28:46;29.70;;;16.70;;
295;SDS011;132;48.770;9.200;2024-01-07T03:31:33;35.28;;;19.42;;
295;SDS011;132;48.770;9.200;2024-01-07T03:34:20;34.95;;;18.35;;
295;SDS011;132;48.770;9.200;2024-01-07T03:37:06;34.00;;;18.45;;
295;SDS011;132;48.770;9.200;2024-01-07T03:39:53;35.80;;;19.05;;
295;SDS011;132;48.770;9.200;2024-01-07T03:42:39;33.40;;;17.60;;
295;SDS011;132;48.770;9.200;2024-01-07T03:45:26;33.13;;;17.73;;
295;SDS011;132;48.770;9.200;2024-01-07T03:48:13;34.08;;;16.77;;
295;SDS011;132;48.770;9.200;2024-01-07T03:50:59;28.17;;;16.67;;
295;SDS011;132;48.770;9.200;2024-01-07T03:53:46;28.75;;;16.42;;
295;SDS011;132;48.770;9.200;2024-01-07T03:56:32;32.38;;;17.55;;
295;SDS011;132;48.770;9.200;2024-01-07T03:59:22;31.63;;;17.38;;
295;SDS011;132;48.770;9.200;2024-01-07T04:02:11;32.28;;;16.85;;
295;SDS011;132;48.770;9.200;2024-01-07T04:04:58;33.45;;;17.30;;
295;SDS011;132;48.770;9.200;2024-01-07T04:07:44;30.17;;;17.08;;
295;SDS011;132;48.770;9.200;2024-01-07T04:10:31;29.58;;;17.23;;
295;SDS011;132;48.770;9.200;2024-01-07T04:13:17;31.65;;;17.65;;
295;SDS011;132;48.770;9.200;2024-01-07T04:16:04;31.15;;;17.15;;
295;SDS011;132;48.770;9.200;2024-01-07T04:18:51;30.17;;;16.30;;
295;SDS011;132;48.770;9.200;2024-01-07T04:21:37;30.70;;;17.00;;
295;SDS011;132;48.770;9.200;2024-01-07T04:24:24;31.20;;;16.75;;
295;SDS011;132;48.770;9.200;2024-01-07T04:27:10;33.50;;;17.95;;
295;SDS011;132;48.770;9.200;2024-01-07T04:29:57;27.48;;;15.35;;
295;SDS011;132;48.770;9.200;2024-01-07T04:32:44;32.00;;;17.60;;
295;SDS011;132;48.770;9.200;2024-01-07T04:35:30;29.60;;;16.45;;
295;SDS011;132;48.770;9.200;2024-01-07T04:38:17;31.63;;;16.33;;
295;SDS011;132;48.770;9.200;2024-01-07T04:41:03;31.73;;;16.55;;
295;SDS011;132;48.770;9.200;2024-01-07T04:43:53;28.95;;;16.55;;
295;SDS011;132;48.770;9.200;2024-01-07T04:46:39;34.55;;;16.67;;
295;SDS011;132;48.770;9.200;2024-01-07T04:49:26;32.72;;;17.92;;
295;SDS011;132;48.770;9.200;2024-01-07T04:52:12;32.03;;;17.52;;
295;SDS011;132;48.770;9.200;2024-01-07T04:54:59;33.53;;;18.08;;
295;SDS011;132;48.770;9.200;2024-01-07T04:57:46;34.63;;;17.40;;
295;SDS011;132;48.770;9.200;2024-01-07T05:00:32;29.75;;;15.45;;
295;SDS011;132;48.770;9.200;2024-01-07T05:03:19;35.88;;;18.00;;
295;SDS011;132;48.770;9.200;2024-01-07T05:06:08;35.15;;;17.08;;
295;SDS011;132;48.770;9.200;2024-01-07T05:08:55;29.90;;;16.25;;
295;SDS011;132;48.770;9.200;2024-01-07T05:11:42;33.97;;;16.50;;
295;SDS011;132;48.770;9.200;2024-01-07T05:14:28;32.58;;;15.73;;
295;SDS011;132;48.770;9.200;2024-01-07T05:17:15;29.25;;;15.43;;
295;SDS011;132;48.770;9.200;2024-01-07T05:20:01;28.33;;;13.98;;
295;SDS011;132;48.770;9.200;2024-01-07T05:22:48;32.83;;;15.60;;
295;SDS011;132;48.770;9.200;2024-01-07T05:25:35;27.13;;;14.43;;
295;SDS011;132;48.770;9.200;2024-01-07T05:28:21;33.85;;;15.80;;
295;SDS011;132;48.770;9.200;2024-01-07T05:31:15;27.83;;;13.93;;
295;SDS011;132;48.770;9.200;2024-01-07T05:34:05;28.00;;;14.60;;
295;SDS011;132;48.770;9.200;2024-01-07T05:36:51;27.00;;;14.40;;
295;SDS011;132;48.770;9.200;2024-01-07T05:39:38;26.17;;;13.95;;
295;SDS011;132;48.770;9.200;2024-01-07T05:42:25;27.13;;;14.00;;
295;SDS011;132;48.770;9.200;2024-01-07T05:45:11;24.70;;;13.30;;
295;SDS011;132;48.770;9.200;2024-01-07T05:47:58;25.63;;;13.65;;
295;SDS011;132;48.770;9.200;2024-01-07T05:50:45;27.00;;;13.85;;
295;SDS011;132;48.770;9.200;2024-01-07T05:53:31;26.83;;;13.68;;
295;SDS011;132;48.770;9.200;2024-01-07T05:56:18;22.65;;;12.18;;
295;SDS011;132;48.770;9.200;2024-01-07T05:59:05;24.85;;;13.82;;
295;SDS011;132;48.770;9.200;2024-01-07T06:01:51;24.85;;;12.90;;
295;SDS011;132;48.770;9.200;2024-01-07T06:04:44;27.60;;;14.63;;
295;SDS011;132;48.770;9.200;2024-01-07T06:07:30;23.58;;;13.25;;
295;SDS011;132;48.770;9.200;2024-01-07T06:10:17;21.48;;;12.70;;
295;SDS011;132;48.770;9.200;2024-01-07T06:13:04;21.95;;;12.65;;
295;SDS011;132;48.770;9.200;2024-01-07T06:15:51;24.83;;;13.10;;
295;SDS011;132;48.770;9.200;2024-01-07T06:18:39;26.17;;;13.63;;
295;SDS011;132;48.770;9.200;2024-01-07T06:21:26;26.27;;;13.63;;
295;SDS011;132;48.770;9.200;2024-01-07T06:24:12;25.85;;;12.90;;
295;SDS011;132;48.770;9.200;2024-01-07T06:26:59;25.17;;;14.07;;
295;SDS011;132;48.770;9.200;2024-01-07T06:29:46;26.65;;;13.75;;
295;SDS011;132;48.770;9.200;2024-01-07T06:32:33;22.67;;;13.07;;
295;SDS011;132;48.770;9.200;2024-01-07T06:35:20;22.88;;;12.75;;
295;SDS011;132;48.770;9.200;2024-01-07T06:38:06;25.13;;;12.98;;
295;SDS011;132;48.770;9.200;2024-01-07T06:40:53;22.42;;;12.88;;
295;SDS011;132;48.770;9.200;2024-01-07T06:43:41;24.88;;;13.60;;
295;SDS011;132;48.770;9.200;2024-01-07T06:46:27;23.33;;;13.20;;
295;SDS011;132;48.770;9.200;2024-01-07T06:49:14;27.10;;;13.00;;
295;SDS011;132;48.770;9.200;2024-01-07T06:52:00;21.77;;;12.02;;
295;SDS011;132;48.770;9.200;2024-01-07T06:54:47;23.95;;;13.45;;
295;SDS011;132;48.770;9.200;2024-01-07T06:57:34;22.45;;;13.27;;
295;SDS011;132;48.770;9.200;2024-01-07T07:00:20;22.73;;;12.77;;
295;SDS011;132;48.770;9.200;2024-01-07T07:03:07;22.90;;;13.05;;
295;SDS011;132;48.770;9.200;2024-01-07T07:05:54;18.27;;;11.82;;
295;SDS011;132;48.770;9.200;2024-01-07T07:08:41;20.52;;;12.52;;
295;SDS011;132;48.770;9.200;2024-01-07T07:11:28;19.13;;;12.52;;
295;SDS011;132;48.770;9.200;2024-01-07T07:14:14;23.25;;;11.85;;
295;SDS011;132;48.770;9.200;2024-01-07T07:17:01;23.65;;;13.35;;
295;SDS011;132;48.770;9.200;2024-01-07T07:19:48;22.33;;;12.57;;
295;SDS011;132;48.770;9.200;2024-01-07T07:22:34;20.63;;;12.65;;
295;SDS011;132;48.770;9.200;2024-01-07T07:25:21;20.38;;;12.50;;
295;SDS011;132;48.770;9.200;2024-01-07T07:28:07;24.70;;;11.85;;
295;SDS011;132;48.770;9.200;2024-01-07T07:30:54;21.08;;;12.15;;
295;SDS011;132;48.770;9.200;2024-01-07T07:33:41;17.00;;;11.40;;
295;SDS011;132;48.770;9.200;2024-01-07T07:36:27;17.88;;;11.18;;
295;SDS011;132;48.770;9.200;2024-01-07T07:39:14;18.30;;;12.13;;
295;SDS011;132;48.770;9.200;2024-01-07T07:42:01;17.02;;;11.10;;
295;SDS011;132;48.770;9.200;2024-01-07T07:44:48;16.98;;;10.70;;
295;SDS011;132;48.770;9.200;2024-01-07T07:47:35;22.20;;;10.55;;
295;SDS011;132;48.770;9.200;2024-01-07T07:50:21;16.55;;;10.70;;
295;SDS011;132;48.770;9.200;2024-01-07T07:53:08;16.83;;;10.10;;
295;SDS011;132;48.770;9.200;2024-01-07T07:55:55;14.20;;;9.60;;
295;SDS011;132;48.770;9.200;2024-01-07T07:58:41;14.95;;;9.10;;
295;SDS011;132;48.770;9.200;2024-01-07T08:01:28;16.00;;;10.27;;
295;SDS011;132;48.770;9.200;2024-01-07T08:04:15;14.23;;;9.10;;
295;SDS011;132;48.770;9.200;2024-01-07T08:07:02;18.88;;;9.95;;
295;SDS011;132;48.770;9.200;2024-01-07T08:09:48;18.20;;;10.20;;
295;SDS011;132;48.770;9.200;2024-01-07T08:12:35;19.95;;;11.13;;
295;SDS011;132;48.770;9.200;2024-01-07T08:15:22;17.33;;;10.10;;
295;SDS011;132;48.770;9.200;2024-01-07T08:18:09;16.60;;;9.75;;
295;SDS011;132;48.770;9.200;2024-01-07T08:20:55;15.55;;;9.00;;
295;SDS011;132;48.770;9.200;2024-01-07T08:23:42;16.70;;;8.95;;
295;SDS011;132;48.770;9.200;2024-01-07T08:26:28;14.57;;;8.95;;
295;SDS011;132;48.770;9.200;2024-01-07T08:29:15;14.20;;;8.73;;
295;SDS011;132;48.770;9.200;2024-01-07T08:32:02;14.07;;;8.35;;
295;SDS011;132;48.770;9.200;2024-01-07T08:34:49;13.98;;;8.02;;
295;SDS011;132;48.770;9.200;2024-01-07T08:37:35;13.90;;;8.90;;
295;SDS011;132;48.770;9.200;2024-01-07T08:40:22;14.00;;;8.80;;
295;SDS011;132;48.770;9.200;2024-01-07T08:43:09;13.50;;;8.10;;
295;SDS011;132;48.770;9.200;2024-01-07T08:45:55;16.08;;;8.80;;
295;SDS011;132;48.770;9.200;2024-01-07T08:48:42;17.65;;;10.25;;
295;SDS011;132;48.770;9.200;2024-01-07T08:51:28;15.57;;;9.30;;
295;SDS011;132;48.770;9.200;2024-01-07T08:54:15;15.20;;;8.90;;
295;SDS011;132;48.770;9.200;2024-01-07T08:57:02;19.50;;;9.38;;
295;SDS011;132;48.770;9.200;2024-01-07T08:59:49;15.40;;;9.20;;
295;SDS011;132;48.770;9.200;2024-01-07T09:02:35;13.70;;;8.38;;
295;SDS011;132;48.770;9.200;2024-01-07T09:05:22;13.60;;;8.52;;
295;SDS011;132;48.770;9.200;2024-01-07T09:08:10;15.75;;;9.48;;
295;SDS011;132;48.770;9.200;2024-01-07T09:11:00;17.05;;;9.75;;
295;SDS011;132;48.770;9.200;2024-01-07T09:13:47;15.82;;;9.48;;
295;SDS011;132;48.770;9.200;2024-01-07T09:16:34;15.95;;;8.95;;
295;SDS011;132;48.770;9.200;2024-01-07T09:19:21;13.27;;;8.45;;
295;SDS011;132;48.770;9.200;2024-01-07T09:22:08;12.10;;;7.55;;
295;SDS011;132;48.770;9.200;2024-01-07T09:24:54;10.15;;;6.65;;
295;SDS011;132;48.770;9.200;2024-01-07T09:27:42;10.80;;;6.53;;
295;SDS011;132;48.770;9.200;2024-01-07T09:30:29;12.95;;;7.05;;
295;SDS011;132;48.770;9.200;2024-01-07T09:33:16;9.70;;;6.25;;
295;SDS011;132;48.770;9.200;2024-01-07T09:36:02;10.68;;;6.47;;
295;SDS011;132;48.770;9.200;2024-01-07T09:38:49;10.48;;;6.10;;
295;SDS011;132;48.770;9.200;2024-01-07T09:41:36;9.40;;;6.25;;
295;SDS011;132;48.770;9.200;2024-01-07T09:44:22;9.15;;;5.90;;
295;SDS011;132;48.770;9.200;2024-01-07T09:47:10;8.82;;;6.28;;
295;SDS011;132;48.770;9.200;2024-01-07T09:49:58;11.52;;;6.60;;
295;SDS011;132;48.770;9.200;2024-01-07T09:52:45;11.55;;;6.85;;
295;SDS011;132;48.770;9.200;2024-01-07T09:55:52;11.20;;;7.00;;
295;SDS011;132;48.770;9.200;2024-01-07T09:58:57;9.60;;;6.18;;
295;SDS011;132;48.770;9.200;2024-01-07T10:01:44;10.15;;;6.30;;
295;SDS011;132;48.770;9.200;2024-01-07T10:04:33;11.25;;;6.00;;
295;SDS011;132;48.770;9.200;2024-01-07T10:07:19;8.45;;;5.20;;
295;SDS011;132;48.770;9.200;2024-01-07T10:10:16;8.68;;;6.05;;
295;SDS011;132;48.770;9.200;2024-01-07T10:13:03;8.95;;;6.40;;
295;SDS011;132;48.770;9.200;2024-01-07T10:15:50;9.77;;;6.20;;
295;SDS011;132;48.770;9.200;2024-01-07T10:18:36;15.30;;;6.90;;
295;SDS011;132;48.770;9.200;2024-01-07T10:21:23;11.63;;;7.47;;
295;SDS011;132;48.770;9.200;2024-01-07T10:24:10;13.32;;;8.00;;
295;SDS011;132;48.770;9.200;2024-01-07T10:26:58;13.18;;;8.55;;
295;SDS011;132;48.770;9.200;2024-01-07T10:29:49;10.70;;;6.90;;
295;SDS011;132;48.770;9.200;2024-01-07T10:32:36;11.15;;;7.30;;
295;SDS011;132;48.770;9.200;2024-01-07T10:35:27;13.98;;;8.95;;
295;SDS011;132;48.770;9.200;2024-01-07T10:38:19;11.82;;;7.47;;
295;SDS011;132;48.770;9.200;2024-01-07T10:41:07;15.20;;;9.48;;
295;SDS011;132;48.770;9.200;2024-01-07T10:43:57;15.95;;;8.95;;
295;SDS011;132;48.770;9.200;2024-01-07T10:46:44;12.30;;;8.13;;
295;SDS011;132;48.770;9.200;2024-01-07T10:49:32;15.77;;;9.38;;
295;SDS011;132;48.770;9.200;2024-01-07T10:52:21;13.90;;;8.15;;
295;SDS011;132;48.770;9.200;2024-01-07T10:55:09;15.98;;;9.40;;
295;SDS011;132;48.770;9.200;2024-01-07T10:58:00;11.07;;;7.35;;
295;SDS011;132;48.770;9.200;2024-01-07T11:00:49;13.80;;;8.20;;
295;SDS011;132;48.770;9.200;2024-01-07T11:03:38;12.77;;;7.70;;
295;SDS011;132;48.770;9.200;2024-01-07T11:06:36;14.02;;;7.63;;
295;SDS011;132;48.770;9.200;2024-01-07T11:09:33;15.63;;;9.52;;
295;SDS011;132;48.770;9.200;2024-01-07T11:12:23;14.70;;;8.90;;
295;SDS011;132;48.770;9.200;2024-01-07T11:15:10;17.13;;;9.57;;
295;SDS011;132;48.770;9.200;2024-01-07T11:17:58;16.35;;;8.38;;
295;SDS011;132;48.770;9.200;2024-01-07T11:20:47;13.27;;;7.90;;
295;SDS011;132;48.770;9.200;2024-01-07T11:23:42;12.50;;;7.50;;
295;SDS011;132;48.770;9.200;2024-01-07T11:26:29;13.18;;;8.10;;
295;SDS011;132;48.770;9.200;2024-01-07T11:29:16;12.55;;;8.00;;
295;SDS011;132;48.770;9.200;2024-01-07T11:32:05;12.05;;;7.65;;
295;SDS011;132;48.770;9.200;2024-01-07T11:34:52;11.00;;;6.88;;
295;SDS011;132;48.770;9.200;2024-01-07T11:37:39;11.10;;;6.95;;
295;SDS011;132;48.770;9.200;2024-01-07T11:40:26;12.50;;;7.03;;
295;SDS011;132;48.770;9.200;2024-01-07T11:43:13;12.20;;;7.40;;
295;SDS011;132;48.770;9.200;2024-01-07T11:45:59;10.95;;;7.03;;
295;SDS011;132;48.770;9.200;2024-01-07T11:48:46;10.57;;;6.95;;
295;SDS011;132;48.770;9.200;2024-01-07T11:51:33;9.80;;;6.57;;
295;SDS011;132;48.770;9.200;2024-01-07T11:54:21;12.27;;;7.35;;
295;SDS011;132;48.770;9.200;2024-01-07T11:57:08;11.05;;;7.40;;
295;SDS011;132;48.770;9.200;2024-01-07T11:59:56;10.98;;;7.00;;
295;SDS011;132;48.770;9.200;2024-01-07T12:02:43;9.65;;;6.90;;
295;SDS011;132;48.770;9.200;2024-01-07T12:05:31;11.00;;;6.70;;
295;SDS011;132;48.770;9.200;2024-01-07T12:08:18;14.60;;;8.40;;
295;SDS011;132;48.770;9.200;2024-01-07T12:11:06;12.25;;;7.97;;
295;SDS011;132;48.770;9.200;2024-01-07T12:13:53;14.85;;;8.77;;
295;SDS011;132;48.770;9.200;2024-01-07T12:16:40;14.45;;;8.60;;
295;SDS011;132;48.770;9.200;2024-01-07T12:19:27;13.60;;;8.48;;
295;SDS011;132;48.770;9.200;2024-01-07T12:22:14;13.68;;;8.65;;
295;SDS011;132;48.770;9.200;2024-01-07T12:25:05;13.35;;;8.23;;
295;SDS011;132;48.770;9.200;2024-01-07T12:27:52;17.77;;;10.05;;
295;SDS011;132;48.770;9.200;2024-01-07T12:30:39;13.23;;;9.02;;
295;SDS011;132;48.770;9.200;2024-01-07T12:33:26;16.48;;;9.85;;
295;SDS011;132;48.770;9.200;2024-01-07T12:36:12;13.23;;;8.60;;
295;SDS011;132;48.770;9.200;2024-01-07T12:39:01;14.40;;;9.27;;
295;SDS011;132;48.770;9.200;2024-01-07T12:41:48;15.25;;;9.35;;
295;SDS011;132;48.770;9.200;2024-01-07T12:44:37;13.32;;;8.65;;
295;SDS011;132;48.770;9.200;2024-01-07T12:47:24;15.38;;;8.57;;
295;SDS011;132;48.770;9.200;2024-01-07T12:50:11;14.82;;;9.55;;
295;SDS011;132;48.770;9.200;2024-01-07T12:52:58;19.70;;;11.52;;
295;SDS011;132;48.770;9.200;2024-01-07T12:55:45;15.52;;;9.82;;
295;SDS011;132;48.770;9.200;2024-01-07T12:58:32;17.05;;;10.05;;
295;SDS011;132;48.770;9.200;2024-01-07T13:01:19;16.98;;;10.05;;
295;SDS011;132;48.770;9.200;2024-01-07T13:04:05;16.98;;;10.30;;
295;SDS011;132;48.770;9.200;2024-01-07T13:06:52;14.00;;;8.85;;
295;SDS011;132;48.770;9.200;2024-01-07T13:09:39;15.65;;;9.57;;
295;SDS011;132;48.770;9.200;2024-01-07T13:12:25;15.23;;;9.77;;
295;SDS011;132;48.770;9.200;2024-01-07T13:15:12;15.93;;;9.68;;
295;SDS011;132;48.770;9.200;2024-01-07T13:17:59;16.83;;;10.45;;
295;SDS011;132;48.770;9.200;2024-01-07T13:20:46;17.42;;;9.90;;
295;SDS011;132;48.770;9.200;2024-01-07T13:23:32;17.50;;;10.40;;
295;SDS011;132;48.770;9.200;2024-01-07T13:26:19;19.30;;;9.10;;
295;SDS011;132;48.770;9.200;2024-01-07T13:29:06;16.13;;;9.60;;
295;SDS011;132;48.770;9.200;2024-01-07T13:31:53;15.45;;;9.68;;
295;SDS011;132;48.770;9.200;2024-01-07T13:34:39;18.17;;;10.50;;
295;SDS011;132;48.770;9.200;2024-01-07T13:37:26;15.90;;;10.07;;
295;SDS011;132;48.770;9.200;2024-01-07T13:40:13;17.08;;;10.05;;
295;SDS011;132;48.770;9.200;2024-01-07T13:43:00;17.02;;;9.85;;
295;SDS011;132;48.770;9.200;2024-01-07T13:45:47;17.88;;;9.90;;
295;SDS011;132;48.770;9.200;2024-01-07T13:48:33;19.95;;;11.32;;
295;SDS011;132;48.770;9.200;2024-01-07T13:51:20;16.50;;;10.40;;
295;SDS011;132;48.770;9.200;2024-01-07T13:54:07;15.90;;;9.70;;
295;SDS011;132;48.770;9.200;2024-01-07T13:56:56;20.60;;;10.80;;
295;SDS011;132;48.770;9.200;2024-01-07T13:59:43;19.75;;;11.15;;
295;SDS011;132;48.770;9.200;2024-01-07T14:02:29;17.45;;;10.40;;
295;SDS011;132;48.770;9.200;2024-01-07T14:05:16;17.40;;;10.65;;
295;SDS011;132;48.770;9.200;2024-01-07T14:08:03;18.55;;;11.18;;
295;SDS011;132;48.770;9.200;2024-01-07T14:10:49;17.88;;;11.25;;
295;SDS011;132;48.770;9.200;2024-01-07T14:13:36;16.58;;;10.63;;
295;SDS011;132;48.770;9.200;2024-01-07T14:16:23;20.70;;;11.15;;
295;SDS011;132;48.770;9.200;2024-01-07T14:19:10;17.20;;;10.23;;
295;SDS011;132;48.770;9.200;2024-01-07T14:21:56;22.00;;;12.55;;
295;SDS011;132;48.770;9.200;2024-01-07T14:24:43;23.05;;;12.35;;
295;SDS011;132;48.770;9.200;2024-01-07T14:27:30;25.10;;;13.43;;
295;SDS011;132;48.770;9.200;2024-01-07T14:30:16;25.33;;;13.05;;
295;SDS011;132;48.770;9.200;2024-01-07T14:33:03;22.90;;;12.60;;
295;SDS011;132;48.770;9.200;2024-01-07T14:35:50;25.10;;;13.15;;
295;SDS011;132;48.770;9.200;2024-01-07T14:38:37;21.90;;;12.27;;
295;SDS011;132;48.770;9.200;2024-01-07T14:41:23;19.80;;;12.15;;
295;SDS011;132;48.770;9.200;2024-01-07T14:44:10;22.33;;;12.55;;
295;SDS011;132;48.770;9.200;2024-01-07T14:46:57;22.63;;;13.30;;
295;SDS011;132;48.770;9.200;2024-01-07T14:49:43;22.17;;;12.40;;
295;SDS011;132;48.770;9.200;2024-01-07T14:52:30;23.02;;;13.27;;
295;SDS011;132;48.770;9.200;2024-01-07T14:55:17;23.05;;;13.38;;
295;SDS011;132;48.770;9.200;2024-01-07T14:58:03;23.48;;;13.10;;
295;SDS011;132;48.770;9.200;2024-01-07T15:00:50;22.33;;;13.25;;
295;SDS011;132;48.770;9.200;2024-01-07T15:03:37;22.35;;;12.70;;
295;SDS011;132;48.770;9.200;2024-01-07T15:06:24;20.23;;;11.80;;
295;SDS011;132;48.770;9.200;2024-01-07T15:09:10;20.50;;;11.80;;
295;SDS011;132;48.770;9.200;2024-01-07T15:11:57;24.63;;;12.35;;
295;SDS011;132;48.770;9.200;2024-01-07T15:14:45;21.08;;;12.05;;
295;SDS011;132;48.770;9.200;2024-01-07T15:17:32;19.35;;;11.75;;
295;SDS011;132;48.770;9.200;2024-01-07T15:20:19;25.55;;;13.65;;
295;SDS011;132;48.770;9.200;2024-01-07T15:23:05;23.63;;;12.77;;
295;SDS011;132;48.770;9.200;2024-01-07T15:25:52;24.25;;;12.68;;
295;SDS011;132;48.770;9.200;2024-01-07T15:28:39;24.23;;;13.18;;
295;SDS011;132;48.770;9.200;2024-01-07T15:31:26;25.08;;;13.13;;
295;SDS011;132;48.770;9.200;2024-01-07T15:34:12;23.25;;;12.52;;
295;SDS011;132;48.770;9.200;2024-01-07T15:36:59;22.35;;;12.80;;
295;SDS011;132;48.770;9.200;2024-01-07T15:39:45;24.75;;;12.52;;
295;SDS011;132;48.770;9.200;2024-01-07T15:42:32;21.55;;;11.88;;
295;SDS011;132;48.770;9.200;2024-01-07T15:45:19;19.08;;;11.68;;
295;SDS011;132;48.770;9.200;2024-01-07T15:48:06;23.52;;;12.15;;
295;SDS011;132;48.770;9.200;2024-01-07T15:50:52;21.70;;;12.60;;
295;SDS011;132;48.770;9.200;2024-01-07T15:53:39;24.70;;;13.93;;
295;SDS011;132;48.770;9.200;2024-01-07T15:56:25;24.27;;;13.30;;
295;SDS011;132;48.770;9.200;2024-01-07T15:59:12;24.63;;;12.95;;
295;SDS011;132;48.770;9.200;2024-01-07T16:01:59;20.45;;;11.98;;
295;SDS011;132;48.770;9.200;2024-01-07T16:04:46;23.35;;;12.40;;
295;SDS011;132;48.770;9.200;2024-01-07T16:07:33;24.40;;;13.35;;
295;SDS011;132;48.770;9.200;2024-01-07T16:10:19;22.33;;;13.07;;
295;SDS011;132;48.770;9.200;2024-01-07T16:13:06;21.17;;;12.35;;
295;SDS011;132;48.770;9.200;2024-01-07T16:15:53;24.05;;;12.95;;
295;SDS011;132;48.770;9.200;2024-01-07T16:18:39;23.58;;;13.35;;
295;SDS011;132;48.770;9.200;2024-01-07T16:21:26;24.02;;;13.90;;
295;SDS011;132;48.770;9.200;2024-01-07T16:24:13;28.92;;;14.25;;
295;SDS011;132;48.770;9.200;2024-01-07T16:26:59;25.92;;;14.05;;
295;SDS011;132;48.770;9.200;2024-01-07T16:29:46;25.73;;;14.25;;
295;SDS011;132;48.770;9.200;2024-01-07T16:32:33;28.13;;;14.48;;
295;SDS011;132;48.770;9.200;2024-01-07T16:35:20;23.20;;;12.13;;
295;SDS011;132;48.770;9.200;2024-01-07T16:38:08;34.92;;;15.18;;
295;SDS011;132;48.770;9.200;2024-01-07T16:40:55;25.55;;;13.30;;
295;SDS011;132;48.770;9.200;2024-01-07T16:43:41;22.17;;;12.95;;
295;SDS011;132;48.770;9.200;2024-01-07T16:46:28;23.05;;;10.88;;
295;SDS011;132;48.770;9.200;2024-01-07T16:49:15;18.75;;;10.40;;
295;SDS011;132;48.770;9.200;2024-01-07T16:52:01;20.52;;;10.20;;
295;SDS011;132;48.770;9.200;2024-01-07T16:54:48;19.90;;;10.85;;
295;SDS011;132;48.770;9.200;2024-01-07T16:57:35;18.98;;;10.10;;
295;SDS011;132;48.770;9.200;2024-01-07T17:00:23;19.20;;;9.57;;
295;SDS011;132;48.770;9.200;2024-01-07T17:03:10;22.70;;;10.45;;
295;SDS011;132;48.770;9.200;2024-01-07T17:05:56;17.00;;;9.80;;
295;SDS011;132;48.770;9.200;2024-01-07T17:08:44;20.00;;;10.00;;
295;SDS011;132;48.770;9.200;2024-01-07T17:11:32;20.33;;;10.18;;
295;SDS011;132;48.770;9.200;2024-01-07T17:14:19;19.25;;;10.20;;
295;SDS011;132;48.770;9.200;2024-01-07T17:17:05;18.40;;;10.25;;
295;SDS011;132;48.770;9.200;2024-01-07T17:19:52;17.60;;;9.68;;
295;SDS011;132;48.770;9.200;2024-01-07T17:22:39;21.38;;;10.70;;